Centennial Airport
KAPA : now visible

Airfield :











YOU CAN JOIN US ON...

 
LOGIN :

Register | Disclaimer

   EN    FR    IT 

 









Legend :    VFR   Marginal VFR   IFR   Intensive IFR   Very Intensive IFR
Visi :
Ceiling :
>= 8 km
>= 3000ft
5 to 8 km
1000 to 3000 ft
1500m to 5 km
500 to 1000 ft
800 to 1500m
200 to 500 ft
< 800m
< 200 ft
Symbols :   Thunderstorms  Fog  Heavy snow  Heavy precipitations  Wind > 20 kt






- Airport Elevation : 5885 ft


KAPA - Centennial

CURRENT METAR :
  • 081853Z 36009G20KT 10SM FEW080 19/M06 A3008 RMK AO2 SLP147 T01891061

EXPIRED METARs :
  • 081753Z 34006KT 10SM FEW080 FEW220 18/M08 A3011 RMK AO2 SLP155 T01781083 10178 20017 58002
  • 081653Z 35007KT 10SM FEW080 FEW220 17/M08 A3012 RMK AO2 SLP157 T01721078

TAF KAPA
Valid from the 08 at 18:00 until the 09 at 18:00 UTC


081739Z 0818/0918 02010KT P6SM FEW100 SCT220
FM082200 34011KT P6SM FEW100 SCT220
FM090200 29007KT P6SM SCT080 SCT120 SCT200
FM090700 02011KT P6SM FEW050 BKN080
FM091200 03009KT P6SM SCT025 BKN040



MET'MAP, your aeronautical weather chart ! - Copyright ORBIFLY December 2007 - Disclaimer

ORBIFLY MET'MAP TEAM :

Programming & Development : Alexandra Zaïnal
Concept & original design : Baudouin d'Aumeries
Assistance for programming : Marc-Olivier Méhu
Technical & hardware support : Manuel Goepfert

Contact : metmap@orbifly.com




SOURCES & CREDITS :

   NOAA       Earth
Advisory